Terminal Aerodrome Forecast
Issued by NWS

Current Version | Previous Version | Graphics & Text | Print | Product List | Glossary On
Versions: 1 2 3 4 5 6 7 8 9 10 11 12 13 14 15 16 17 18 19 20 21
000
FTUS41 KPBZ 301729
TAFHLG
TAF
KHLG 301729Z 3018/0118 22007KT P6SM OVC008
     FM302000 21008KT P6SM VCSH OVC015
     FM010200 28015G28KT P6SM VCSH BKN030
     FM010500 26010G15KT P6SM SCT150
     FM011100 24010KT P6SM BKN025=

USA.gov is the U.S. government's official web portal to all federal, state and local government web resources and services.